Startpagina
METAR-TAF:

METAR-TAF

Vliegvelden :

Vliegveld de Kooy

Den Helder, Nederland

breedte: 52-55N, lengte: 004-47E, hoogte: 0 m

Actueel weer

Dit bericht is 22 minuten geleden gemaakt, om 18:25 UTC
Wind 5 kt uit het zuidwesten, variërend tussen het zuiden en het westen
Temperatuur 14°C
Vochtigheid 77%
Druk 1016 hPa
Zicht 10 km of meer
geen wolken onder 1500 m en geen cumulonimbus

METAR: EHKD 231825Z AUTO 23006KT 190V260 9999 OVC280 14/10 Q1016 BLU 23005KT CAVOK

Tijdstip: 20:47 (18:47 UTC)

Verwachting

Dit bericht is 1 uur en het 53 minuten geleden gemaakt, om 16:54 UTC
Verwachting geldig van 23 om 17 UTC tot 24 om 05 UTC
Wind 5 kt uit het westzuidwesten
Zicht 10 km of meer
geen wolken onder 1500 m en geen cumulonimbus
Wijzigt naar
van 23 om 19 UTC tot 23 om 21 UTC
Wind 6 kt uit het zuiden

TAF: EHKD 231654Z 2317/2405 25005KT CAVOK BECMG 2319/2321 19006KT

Waarnemingen en weersverwachtingen van meer dan 4000 vliegvelden (METAR en TAF).

De beschikbare stations zijn de gele en rode punten op de kaart.

Ga met uw muis naar het station om de naam te zien.

Klik dan om waarnemingen en weersverwachtingen te zien.

kaart wijzigen: klik op de groene knoppen met een zwart kruis om in te zoomen, op de groene knop met een streepje om uit te zoomen of op de groene pijlen voor aangrenzende kaarten.


METAR-TAF: